sensor_id;sensor_type;location;lat;lon;timestamp;P1;durP1;ratioP1;P2;durP2;ratioP2
37905;SDS011;23739;51.448;6.674;2023-05-14T00:05:19;13.23;;;11.90;;
37905;SDS011;23739;51.448;6.674;2023-05-14T00:07:45;15.10;;;12.10;;
37905;SDS011;23739;51.448;6.674;2023-05-14T00:10:12;16.42;;;12.60;;
37905;SDS011;23739;51.448;6.674;2023-05-14T00:12:38;12.82;;;11.45;;
37905;SDS011;23739;51.448;6.674;2023-05-14T00:15:04;23.85;;;13.57;;
37905;SDS011;23739;51.448;6.674;2023-05-14T00:17:30;16.42;;;12.35;;
37905;SDS011;23739;51.448;6.674;2023-05-14T00:19:57;13.70;;;12.30;;
37905;SDS011;23739;51.448;6.674;2023-05-14T00:22:23;14.90;;;13.32;;
37905;SDS011;23739;51.448;6.674;2023-05-14T00:24:50;13.05;;;11.75;;
37905;SDS011;23739;51.448;6.674;2023-05-14T00:27:16;13.15;;;11.80;;
37905;SDS011;23739;51.448;6.674;2023-05-14T00:29:42;16.35;;;13.10;;
37905;SDS011;23739;51.448;6.674;2023-05-14T00:32:09;13.02;;;11.73;;
37905;SDS011;23739;51.448;6.674;2023-05-14T00:34:35;12.40;;;11.10;;
37905;SDS011;23739;51.448;6.674;2023-05-14T00:37:01;11.88;;;10.57;;
37905;SDS011;23739;51.448;6.674;2023-05-14T00:39:28;20.75;;;13.98;;
37905;SDS011;23739;51.448;6.674;2023-05-14T00:41:54;15.43;;;13.93;;
37905;SDS011;23739;51.448;6.674;2023-05-14T00:44:20;14.60;;;11.57;;
37905;SDS011;23739;51.448;6.674;2023-05-14T00:46:46;12.70;;;11.50;;
37905;SDS011;23739;51.448;6.674;2023-05-14T00:49:12;12.85;;;10.45;;
37905;SDS011;23739;51.448;6.674;2023-05-14T00:51:38;14.07;;;12.40;;
37905;SDS011;23739;51.448;6.674;2023-05-14T00:54:05;16.63;;;12.77;;
37905;SDS011;23739;51.448;6.674;2023-05-14T00:56:32;13.88;;;12.38;;
37905;SDS011;23739;51.448;6.674;2023-05-14T00:58:59;12.63;;;11.32;;
37905;SDS011;23739;51.448;6.674;2023-05-14T01:01:25;14.50;;;12.00;;
37905;SDS011;23739;51.448;6.674;2023-05-14T01:03:52;13.20;;;11.90;;
37905;SDS011;23739;51.448;6.674;2023-05-14T01:16:33;12.63;;;11.38;;
37905;SDS011;23739;51.448;6.674;2023-05-14T01:18:59;13.68;;;12.38;;
37905;SDS011;23739;51.448;6.674;2023-05-14T01:21:34;17.60;;;12.77;;
37905;SDS011;23739;51.448;6.674;2023-05-14T01:24:01;16.17;;;13.50;;
37905;SDS011;23739;51.448;6.674;2023-05-14T01:26:27;15.65;;;14.05;;
37905;SDS011;23739;51.448;6.674;2023-05-14T01:28:55;14.35;;;12.88;;
37905;SDS011;23739;51.448;6.674;2023-05-14T01:31:25;13.57;;;12.18;;
37905;SDS011;23739;51.448;6.674;2023-05-14T01:33:54;13.55;;;12.27;;
37905;SDS011;23739;51.448;6.674;2023-05-14T01:36:22;17.08;;;15.00;;
37905;SDS011;23739;51.448;6.674;2023-05-14T01:38:48;14.57;;;13.00;;
37905;SDS011;23739;51.448;6.674;2023-05-14T01:41:15;14.63;;;13.23;;
37905;SDS011;23739;51.448;6.674;2023-05-14T01:43:44;14.95;;;13.45;;
37905;SDS011;23739;51.448;6.674;2023-05-14T01:46:10;12.93;;;11.73;;
37905;SDS011;23739;51.448;6.674;2023-05-14T01:48:36;14.63;;;13.15;;
37905;SDS011;23739;51.448;6.674;2023-05-14T01:51:02;14.85;;;13.35;;
37905;SDS011;23739;51.448;6.674;2023-05-14T01:53:29;15.98;;;14.20;;
37905;SDS011;23739;51.448;6.674;2023-05-14T01:55:55;17.38;;;12.93;;
37905;SDS011;23739;51.448;6.674;2023-05-14T01:58:21;13.80;;;12.40;;
37905;SDS011;23739;51.448;6.674;2023-05-14T02:00:47;12.65;;;11.32;;
37905;SDS011;23739;51.448;6.674;2023-05-14T02:03:13;15.55;;;13.85;;
37905;SDS011;23739;51.448;6.674;2023-05-14T02:05:39;12.90;;;11.70;;
37905;SDS011;23739;51.448;6.674;2023-05-14T02:08:05;13.52;;;12.23;;
37905;SDS011;23739;51.448;6.674;2023-05-14T02:10:31;14.73;;;11.75;;
37905;SDS011;23739;51.448;6.674;2023-05-14T02:12:58;13.98;;;11.40;;
37905;SDS011;23739;51.448;6.674;2023-05-14T02:15:24;12.82;;;11.50;;
37905;SDS011;23739;51.448;6.674;2023-05-14T02:17:50;14.57;;;11.77;;
37905;SDS011;23739;51.448;6.674;2023-05-14T02:20:16;13.50;;;12.20;;
37905;SDS011;23739;51.448;6.674;2023-05-14T02:22:42;13.88;;;12.13;;
37905;SDS011;23739;51.448;6.674;2023-05-14T02:25:10;13.45;;;12.15;;
37905;SDS011;23739;51.448;6.674;2023-05-14T02:27:36;13.80;;;12.40;;
37905;SDS011;23739;51.448;6.674;2023-05-14T02:30:03;15.48;;;13.88;;
37905;SDS011;23739;51.448;6.674;2023-05-14T02:32:29;12.82;;;11.65;;
37905;SDS011;23739;51.448;6.674;2023-05-14T02:34:55;15.25;;;13.75;;
37905;SDS011;23739;51.448;6.674;2023-05-14T02:37:21;14.52;;;13.13;;
37905;SDS011;23739;51.448;6.674;2023-05-14T02:39:47;14.38;;;12.98;;
37905;SDS011;23739;51.448;6.674;2023-05-14T02:42:13;15.70;;;14.02;;
37905;SDS011;23739;51.448;6.674;2023-05-14T02:44:39;14.98;;;12.55;;
37905;SDS011;23739;51.448;6.674;2023-05-14T02:47:05;15.80;;;13.13;;
37905;SDS011;23739;51.448;6.674;2023-05-14T02:49:32;17.15;;;13.60;;
37905;SDS011;23739;51.448;6.674;2023-05-14T02:51:58;14.27;;;12.77;;
37905;SDS011;23739;51.448;6.674;2023-05-14T02:54:24;13.50;;;12.10;;
37905;SDS011;23739;51.448;6.674;2023-05-14T02:56:51;15.10;;;13.50;;
37905;SDS011;23739;51.448;6.674;2023-05-14T02:59:17;18.15;;;13.73;;
37905;SDS011;23739;51.448;6.674;2023-05-14T03:01:43;16.83;;;13.90;;
37905;SDS011;23739;51.448;6.674;2023-05-14T03:04:09;14.20;;;12.73;;
37905;SDS011;23739;51.448;6.674;2023-05-14T03:06:35;16.33;;;13.98;;
37905;SDS011;23739;51.448;6.674;2023-05-14T03:09:01;14.20;;;12.77;;
37905;SDS011;23739;51.448;6.674;2023-05-14T03:11:28;16.63;;;14.90;;
37905;SDS011;23739;51.448;6.674;2023-05-14T03:13:54;15.32;;;13.68;;
37905;SDS011;23739;51.448;6.674;2023-05-14T03:16:20;16.23;;;13.45;;
37905;SDS011;23739;51.448;6.674;2023-05-14T03:18:46;16.38;;;13.05;;
37905;SDS011;23739;51.448;6.674;2023-05-14T03:21:12;15.75;;;13.27;;
37905;SDS011;23739;51.448;6.674;2023-05-14T03:23:38;16.02;;;12.93;;
37905;SDS011;23739;51.448;6.674;2023-05-14T03:26:04;14.25;;;12.75;;
37905;SDS011;23739;51.448;6.674;2023-05-14T03:28:31;16.63;;;14.18;;
37905;SDS011;23739;51.448;6.674;2023-05-14T03:30:57;14.35;;;12.85;;
37905;SDS011;23739;51.448;6.674;2023-05-14T03:33:23;13.93;;;12.02;;
37905;SDS011;23739;51.448;6.674;2023-05-14T03:35:49;13.82;;;12.23;;
37905;SDS011;23739;51.448;6.674;2023-05-14T03:38:15;13.45;;;12.18;;
37905;SDS011;23739;51.448;6.674;2023-05-14T03:40:42;13.45;;;12.05;;
37905;SDS011;23739;51.448;6.674;2023-05-14T03:43:09;13.40;;;11.85;;
37905;SDS011;23739;51.448;6.674;2023-05-14T03:45:35;14.30;;;12.90;;
37905;SDS011;23739;51.448;6.674;2023-05-14T03:48:02;15.55;;;13.95;;
37905;SDS011;23739;51.448;6.674;2023-05-14T03:50:28;15.30;;;13.85;;
37905;SDS011;23739;51.448;6.674;2023-05-14T03:52:54;15.95;;;14.32;;
37905;SDS011;23739;51.448;6.674;2023-05-14T03:55:20;16.65;;;14.90;;
37905;SDS011;23739;51.448;6.674;2023-05-14T03:57:46;16.00;;;14.38;;
37905;SDS011;23739;51.448;6.674;2023-05-14T04:00:13;17.73;;;14.93;;
37905;SDS011;23739;51.448;6.674;2023-05-14T04:02:39;16.67;;;15.00;;
37905;SDS011;23739;51.448;6.674;2023-05-14T04:05:06;16.17;;;14.65;;
37905;SDS011;23739;51.448;6.674;2023-05-14T04:07:32;14.38;;;12.98;;
37905;SDS011;23739;51.448;6.674;2023-05-14T04:09:58;14.75;;;13.25;;
37905;SDS011;23739;51.448;6.674;2023-05-14T04:12:25;16.10;;;14.40;;
37905;SDS011;23739;51.448;6.674;2023-05-14T04:14:51;17.55;;;14.45;;
37905;SDS011;23739;51.448;6.674;2023-05-14T04:17:17;14.48;;;13.10;;
37905;SDS011;23739;51.448;6.674;2023-05-14T04:19:43;17.10;;;15.23;;
37905;SDS011;23739;51.448;6.674;2023-05-14T04:22:09;17.48;;;15.75;;
37905;SDS011;23739;51.448;6.674;2023-05-14T04:24:35;18.58;;;15.35;;
37905;SDS011;23739;51.448;6.674;2023-05-14T04:27:01;16.33;;;14.75;;
37905;SDS011;23739;51.448;6.674;2023-05-14T04:29:28;21.13;;;16.35;;
37905;SDS011;23739;51.448;6.674;2023-05-14T04:31:54;16.23;;;14.10;;
37905;SDS011;23739;51.448;6.674;2023-05-14T04:34:20;17.38;;;13.85;;
37905;SDS011;23739;51.448;6.674;2023-05-14T04:36:46;14.88;;;13.40;;
37905;SDS011;23739;51.448;6.674;2023-05-14T04:39:12;14.63;;;12.77;;
37905;SDS011;23739;51.448;6.674;2023-05-14T04:41:39;16.80;;;14.93;;
37905;SDS011;23739;51.448;6.674;2023-05-14T04:44:05;17.45;;;14.23;;
37905;SDS011;23739;51.448;6.674;2023-05-14T04:46:31;17.70;;;15.00;;
37905;SDS011;23739;51.448;6.674;2023-05-14T04:48:57;17.80;;;16.00;;
37905;SDS011;23739;51.448;6.674;2023-05-14T04:51:23;19.00;;;17.08;;
37905;SDS011;23739;51.448;6.674;2023-05-14T04:53:50;17.23;;;14.65;;
37905;SDS011;23739;51.448;6.674;2023-05-14T04:56:16;18.10;;;16.20;;
37905;SDS011;23739;51.448;6.674;2023-05-14T04:58:42;16.90;;;15.38;;
37905;SDS011;23739;51.448;6.674;2023-05-14T05:01:08;17.15;;;15.40;;
37905;SDS011;23739;51.448;6.674;2023-05-14T05:03:34;16.83;;;14.27;;
37905;SDS011;23739;51.448;6.674;2023-05-14T05:06:00;15.82;;;14.23;;
37905;SDS011;23739;51.448;6.674;2023-05-14T05:08:26;15.40;;;13.82;;
37905;SDS011;23739;51.448;6.674;2023-05-14T05:10:53;15.93;;;14.38;;
37905;SDS011;23739;51.448;6.674;2023-05-14T05:13:19;20.27;;;15.80;;
37905;SDS011;23739;51.448;6.674;2023-05-14T05:15:45;16.95;;;15.35;;
37905;SDS011;23739;51.448;6.674;2023-05-14T05:18:11;19.02;;;17.05;;
37905;SDS011;23739;51.448;6.674;2023-05-14T05:20:37;24.15;;;15.73;;
37905;SDS011;23739;51.448;6.674;2023-05-14T05:23:03;16.67;;;14.80;;
37905;SDS011;23739;51.448;6.674;2023-05-14T05:25:30;16.45;;;14.85;;
37905;SDS011;23739;51.448;6.674;2023-05-14T05:27:56;16.80;;;15.27;;
37905;SDS011;23739;51.448;6.674;2023-05-14T05:30:22;15.57;;;13.98;;
37905;SDS011;23739;51.448;6.674;2023-05-14T05:32:49;16.38;;;14.73;;
37905;SDS011;23739;51.448;6.674;2023-05-14T05:35:15;17.15;;;15.35;;
37905;SDS011;23739;51.448;6.674;2023-05-14T05:37:41;16.35;;;14.70;;
37905;SDS011;23739;51.448;6.674;2023-05-14T05:40:09;16.05;;;14.45;;
37905;SDS011;23739;51.448;6.674;2023-05-14T05:42:37;16.00;;;14.40;;
37905;SDS011;23739;51.448;6.674;2023-05-14T05:45:04;17.20;;;15.48;;
37905;SDS011;23739;51.448;6.674;2023-05-14T05:47:30;17.20;;;15.45;;
37905;SDS011;23739;51.448;6.674;2023-05-14T05:49:56;16.30;;;14.55;;
37905;SDS011;23739;51.448;6.674;2023-05-14T05:52:22;15.57;;;13.98;;
37905;SDS011;23739;51.448;6.674;2023-05-14T05:54:48;15.80;;;14.20;;
37905;SDS011;23739;51.448;6.674;2023-05-14T05:57:14;17.00;;;14.77;;
37905;SDS011;23739;51.448;6.674;2023-05-14T05:59:40;17.10;;;15.38;;
37905;SDS011;23739;51.448;6.674;2023-05-14T06:02:06;19.13;;;17.10;;
37905;SDS011;23739;51.448;6.674;2023-05-14T06:04:32;16.13;;;14.43;;
37905;SDS011;23739;51.448;6.674;2023-05-14T06:06:58;18.20;;;16.38;;
37905;SDS011;23739;51.448;6.674;2023-05-14T06:09:25;16.38;;;14.70;;
37905;SDS011;23739;51.448;6.674;2023-05-14T06:11:51;18.10;;;15.60;;
37905;SDS011;23739;51.448;6.674;2023-05-14T06:14:17;18.00;;;15.93;;
37905;SDS011;23739;51.448;6.674;2023-05-14T06:16:43;16.70;;;14.85;;
37905;SDS011;23739;51.448;6.674;2023-05-14T06:19:10;16.85;;;14.68;;
37905;SDS011;23739;51.448;6.674;2023-05-14T06:21:36;16.33;;;14.65;;
37905;SDS011;23739;51.448;6.674;2023-05-14T06:24:02;17.15;;;15.40;;
37905;SDS011;23739;51.448;6.674;2023-05-14T06:26:28;17.83;;;15.75;;
37905;SDS011;23739;51.448;6.674;2023-05-14T06:28:54;17.02;;;15.20;;
37905;SDS011;23739;51.448;6.674;2023-05-14T06:31:20;19.52;;;15.55;;
37905;SDS011;23739;51.448;6.674;2023-05-14T06:33:46;18.40;;;16.42;;
37905;SDS011;23739;51.448;6.674;2023-05-14T06:36:13;18.83;;;16.65;;
37905;SDS011;23739;51.448;6.674;2023-05-14T06:38:39;18.92;;;16.58;;
37905;SDS011;23739;51.448;6.674;2023-05-14T06:41:05;21.50;;;17.17;;
37905;SDS011;23739;51.448;6.674;2023-05-14T06:43:31;19.27;;;16.40;;
37905;SDS011;23739;51.448;6.674;2023-05-14T06:45:57;19.05;;;15.32;;
37905;SDS011;23739;51.448;6.674;2023-05-14T06:48:24;19.52;;;15.82;;
37905;SDS011;23739;51.448;6.674;2023-05-14T06:50:51;16.48;;;14.80;;
37905;SDS011;23739;51.448;6.674;2023-05-14T06:53:18;18.08;;;15.85;;
37905;SDS011;23739;51.448;6.674;2023-05-14T06:55:46;18.23;;;16.33;;
37905;SDS011;23739;51.448;6.674;2023-05-14T06:58:12;16.83;;;15.07;;
37905;SDS011;23739;51.448;6.674;2023-05-14T07:00:38;17.52;;;14.50;;
37905;SDS011;23739;51.448;6.674;2023-05-14T07:03:04;17.52;;;15.05;;
37905;SDS011;23739;51.448;6.674;2023-05-14T07:05:30;17.42;;;13.88;;
37905;SDS011;23739;51.448;6.674;2023-05-14T07:07:56;17.15;;;15.38;;
37905;SDS011;23739;51.448;6.674;2023-05-14T07:10:22;20.40;;;15.05;;
37905;SDS011;23739;51.448;6.674;2023-05-14T07:12:49;17.80;;;15.90;;
37905;SDS011;23739;51.448;6.674;2023-05-14T07:15:15;18.80;;;15.52;;
37905;SDS011;23739;51.448;6.674;2023-05-14T07:17:41;17.75;;;13.95;;
37905;SDS011;23739;51.448;6.674;2023-05-14T07:20:07;18.08;;;14.70;;
37905;SDS011;23739;51.448;6.674;2023-05-14T07:22:33;15.90;;;14.25;;
37905;SDS011;23739;51.448;6.674;2023-05-14T07:25:01;19.05;;;14.35;;
37905;SDS011;23739;51.448;6.674;2023-05-14T07:27:27;16.88;;;13.77;;
37905;SDS011;23739;51.448;6.674;2023-05-14T07:29:53;17.70;;;14.88;;
37905;SDS011;23739;51.448;6.674;2023-05-14T07:32:19;19.83;;;14.15;;
37905;SDS011;23739;51.448;6.674;2023-05-14T07:34:46;16.52;;;14.27;;
37905;SDS011;23739;51.448;6.674;2023-05-14T07:37:12;19.30;;;14.43;;
37905;SDS011;23739;51.448;6.674;2023-05-14T07:39:38;15.63;;;13.70;;
37905;SDS011;23739;51.448;6.674;2023-05-14T07:42:05;16.77;;;13.05;;
37905;SDS011;23739;51.448;6.674;2023-05-14T07:44:32;18.75;;;14.32;;
37905;SDS011;23739;51.448;6.674;2023-05-14T07:46:58;14.48;;;11.88;;
37905;SDS011;23739;51.448;6.674;2023-05-14T07:49:24;17.05;;;12.90;;
37905;SDS011;23739;51.448;6.674;2023-05-14T07:51:50;18.17;;;12.25;;
37905;SDS011;23739;51.448;6.674;2023-05-14T07:54:16;14.07;;;11.77;;
37905;SDS011;23739;51.448;6.674;2023-05-14T07:56:42;22.65;;;13.40;;
37905;SDS011;23739;51.448;6.674;2023-05-14T07:59:08;15.52;;;13.57;;
37905;SDS011;23739;51.448;6.674;2023-05-14T08:01:34;13.23;;;10.98;;
37905;SDS011;23739;51.448;6.674;2023-05-14T08:04:01;16.25;;;13.73;;
37905;SDS011;23739;51.448;6.674;2023-05-14T08:06:27;20.33;;;13.95;;
37905;SDS011;23739;51.448;6.674;2023-05-14T08:08:53;16.80;;;12.80;;
37905;SDS011;23739;51.448;6.674;2023-05-14T08:11:19;15.80;;;11.80;;
37905;SDS011;23739;51.448;6.674;2023-05-14T08:13:46;13.15;;;11.75;;
37905;SDS011;23739;51.448;6.674;2023-05-14T08:16:12;15.13;;;12.70;;
37905;SDS011;23739;51.448;6.674;2023-05-14T08:18:38;15.63;;;12.20;;
37905;SDS011;23739;51.448;6.674;2023-05-14T08:21:05;14.18;;;11.70;;
37905;SDS011;23739;51.448;6.674;2023-05-14T08:23:31;15.48;;;11.85;;
37905;SDS011;23739;51.448;6.674;2023-05-14T08:25:57;12.32;;;11.13;;
37905;SDS011;23739;51.448;6.674;2023-05-14T08:28:23;11.77;;;10.60;;
37905;SDS011;23739;51.448;6.674;2023-05-14T08:30:49;14.40;;;11.23;;
37905;SDS011;23739;51.448;6.674;2023-05-14T08:33:16;14.45;;;9.68;;
37905;SDS011;23739;51.448;6.674;2023-05-14T08:35:42;15.90;;;12.55;;
37905;SDS011;23739;51.448;6.674;2023-05-14T08:38:08;14.82;;;12.23;;
37905;SDS011;23739;51.448;6.674;2023-05-14T08:40:34;16.08;;;12.00;;
37905;SDS011;23739;51.448;6.674;2023-05-14T08:43:01;11.55;;;10.43;;
37905;SDS011;23739;51.448;6.674;2023-05-14T08:45:28;13.20;;;11.52;;
37905;SDS011;23739;51.448;6.674;2023-05-14T08:47:57;11.80;;;9.75;;
37905;SDS011;23739;51.448;6.674;2023-05-14T08:50:24;12.65;;;10.77;;
37905;SDS011;23739;51.448;6.674;2023-05-14T08:52:51;14.98;;;11.60;;
37905;SDS011;23739;51.448;6.674;2023-05-14T08:55:17;13.52;;;10.75;;
37905;SDS011;23739;51.448;6.674;2023-05-14T08:57:44;12.70;;;10.80;;
37905;SDS011;23739;51.448;6.674;2023-05-14T09:00:11;12.15;;;9.93;;
37905;SDS011;23739;51.448;6.674;2023-05-14T09:02:38;14.02;;;10.15;;
37905;SDS011;23739;51.448;6.674;2023-05-14T09:05:05;9.18;;;8.27;;
37905;SDS011;23739;51.448;6.674;2023-05-14T09:07:31;9.77;;;8.77;;
37905;SDS011;23739;51.448;6.674;2023-05-14T09:09:58;12.68;;;8.98;;
37905;SDS011;23739;51.448;6.674;2023-05-14T09:12:24;15.05;;;9.45;;
37905;SDS011;23739;51.448;6.674;2023-05-14T09:14:50;11.18;;;8.32;;
37905;SDS011;23739;51.448;6.674;2023-05-14T09:20:19;11.65;;;8.52;;
37905;SDS011;23739;51.448;6.674;2023-05-14T09:22:46;11.43;;;8.30;;
37905;SDS011;23739;51.448;6.674;2023-05-14T09:25:12;10.02;;;8.15;;
37905;SDS011;23739;51.448;6.674;2023-05-14T09:27:38;12.88;;;8.25;;
37905;SDS011;23739;51.448;6.674;2023-05-14T09:30:08;10.48;;;8.05;;
37905;SDS011;23739;51.448;6.674;2023-05-14T09:32:38;10.10;;;8.43;;
37905;SDS011;23739;51.448;6.674;2023-05-14T09:35:08;10.80;;;7.90;;
37905;SDS011;23739;51.448;6.674;2023-05-14T09:37:35;13.23;;;9.27;;
37905;SDS011;23739;51.448;6.674;2023-05-14T09:40:05;11.43;;;8.68;;
37905;SDS011;23739;51.448;6.674;2023-05-14T09:42:33;16.00;;;6.80;;
37905;SDS011;23739;51.448;6.674;2023-05-14T09:44:59;8.90;;;6.80;;
37905;SDS011;23739;51.448;6.674;2023-05-14T09:47:25;8.88;;;6.18;;
37905;SDS011;23739;51.448;6.674;2023-05-14T09:49:51;9.13;;;5.22;;
37905;SDS011;23739;51.448;6.674;2023-05-14T09:52:18;8.65;;;5.70;;
37905;SDS011;23739;51.448;6.674;2023-05-14T09:54:45;10.00;;;7.22;;
37905;SDS011;23739;51.448;6.674;2023-05-14T09:57:11;6.70;;;5.55;;
37905;SDS011;23739;51.448;6.674;2023-05-14T09:59:37;7.63;;;5.88;;
37905;SDS011;23739;51.448;6.674;2023-05-14T10:02:03;6.00;;;5.07;;
37905;SDS011;23739;51.448;6.674;2023-05-14T10:04:31;8.85;;;4.38;;
37905;SDS011;23739;51.448;6.674;2023-05-14T10:06:58;10.02;;;5.45;;
37905;SDS011;23739;51.448;6.674;2023-05-14T10:09:25;6.15;;;5.13;;
37905;SDS011;23739;51.448;6.674;2023-05-14T10:11:53;9.40;;;5.32;;
37905;SDS011;23739;51.448;6.674;2023-05-14T10:14:25;5.97;;;5.40;;
37905;SDS011;23739;51.448;6.674;2023-05-14T10:16:54;6.13;;;5.57;;
37905;SDS011;23739;51.448;6.674;2023-05-14T10:19:22;6.60;;;5.55;;
37905;SDS011;23739;51.448;6.674;2023-05-14T10:21:52;6.35;;;5.63;;
37905;SDS011;23739;51.448;6.674;2023-05-14T10:24:18;7.53;;;5.78;;
37905;SDS011;23739;51.448;6.674;2023-05-14T10:26:44;5.60;;;5.10;;
37905;SDS011;23739;51.448;6.674;2023-05-14T10:29:11;5.82;;;5.30;;
37905;SDS011;23739;51.448;6.674;2023-05-14T10:36:58;5.88;;;5.20;;
37905;SDS011;23739;51.448;6.674;2023-05-14T10:39:38;7.45;;;4.60;;
37905;SDS011;23739;51.448;6.674;2023-05-14T10:42:05;6.85;;;4.03;;
37905;SDS011;23739;51.448;6.674;2023-05-14T10:44:31;4.35;;;3.42;;
37905;SDS011;23739;51.448;6.674;2023-05-14T10:47:00;4.80;;;3.45;;
37905;SDS011;23739;51.448;6.674;2023-05-14T10:49:26;3.25;;;2.75;;
37905;SDS011;23739;51.448;6.674;2023-05-14T10:51:52;3.90;;;2.95;;
37905;SDS011;23739;51.448;6.674;2023-05-14T10:54:19;2.97;;;2.67;;
37905;SDS011;23739;51.448;6.674;2023-05-14T10:56:45;3.47;;;2.88;;
37905;SDS011;23739;51.448;6.674;2023-05-14T10:59:11;3.20;;;2.90;;
37905;SDS011;23739;51.448;6.674;2023-05-14T11:01:40;5.28;;;2.40;;
37905;SDS011;23739;51.448;6.674;2023-05-14T11:04:07;9.35;;;3.20;;
37905;SDS011;23739;51.448;6.674;2023-05-14T11:06:33;4.18;;;2.88;;
37905;SDS011;23739;51.448;6.674;2023-05-14T11:09:00;3.97;;;2.85;;
37905;SDS011;23739;51.448;6.674;2023-05-14T11:11:27;6.97;;;2.25;;
37905;SDS011;23739;51.448;6.674;2023-05-14T11:13:54;3.40;;;2.30;;
37905;SDS011;23739;51.448;6.674;2023-05-14T11:16:21;4.20;;;2.40;;
37905;SDS011;23739;51.448;6.674;2023-05-14T11:18:51;4.78;;;2.78;;
37905;SDS011;23739;51.448;6.674;2023-05-14T11:21:18;4.78;;;2.47;;
37905;SDS011;23739;51.448;6.674;2023-05-14T11:23:48;4.45;;;2.58;;
37905;SDS011;23739;51.448;6.674;2023-05-14T11:26:14;2.30;;;2.00;;
37905;SDS011;23739;51.448;6.674;2023-05-14T11:28:40;4.25;;;2.17;;
37905;SDS011;23739;51.448;6.674;2023-05-14T11:31:06;4.85;;;2.20;;
37905;SDS011;23739;51.448;6.674;2023-05-14T11:33:32;4.80;;;2.20;;
37905;SDS011;23739;51.448;6.674;2023-05-14T11:35:58;2.60;;;2.10;;
37905;SDS011;23739;51.448;6.674;2023-05-14T11:38:24;6.03;;;2.83;;
37905;SDS011;23739;51.448;6.674;2023-05-14T11:40:51;4.68;;;2.53;;
37905;SDS011;23739;51.448;6.674;2023-05-14T11:43:18;4.35;;;2.00;;
37905;SDS011;23739;51.448;6.674;2023-05-14T11:45:48;9.18;;;2.58;;
37905;SDS011;23739;51.448;6.674;2023-05-14T11:48:15;4.28;;;2.40;;
37905;SDS011;23739;51.448;6.674;2023-05-14T11:50:46;3.40;;;2.17;;
37905;SDS011;23739;51.448;6.674;2023-05-14T11:53:23;2.67;;;1.83;;
37905;SDS011;23739;51.448;6.674;2023-05-14T11:55:49;4.07;;;2.72;;
37905;SDS011;23739;51.448;6.674;2023-05-14T11:58:16;4.60;;;2.83;;
37905;SDS011;23739;51.448;6.674;2023-05-14T12:00:43;3.58;;;2.75;;
37905;SDS011;23739;51.448;6.674;2023-05-14T12:03:09;4.10;;;2.90;;
37905;SDS011;23739;51.448;6.674;2023-05-14T12:05:39;4.55;;;2.90;;
37905;SDS011;23739;51.448;6.674;2023-05-14T12:08:20;5.65;;;3.22;;
37905;SDS011;23739;51.448;6.674;2023-05-14T12:10:46;6.53;;;3.17;;
37905;SDS011;23739;51.448;6.674;2023-05-14T12:19:20;3.90;;;2.50;;
37905;SDS011;23739;51.448;6.674;2023-05-14T12:21:47;3.28;;;2.58;;
37905;SDS011;23739;51.448;6.674;2023-05-14T12:24:16;3.17;;;2.80;;
37905;SDS011;23739;51.448;6.674;2023-05-14T12:26:47;4.43;;;2.78;;
37905;SDS011;23739;51.448;6.674;2023-05-14T12:29:15;3.60;;;3.30;;
37905;SDS011;23739;51.448;6.674;2023-05-14T12:31:48;4.45;;;2.65;;
37905;SDS011;23739;51.448;6.674;2023-05-14T12:34:14;4.95;;;2.60;;
37905;SDS011;23739;51.448;6.674;2023-05-14T12:36:41;6.18;;;2.63;;
37905;SDS011;23739;51.448;6.674;2023-05-14T12:39:07;6.80;;;2.72;;
37905;SDS011;23739;51.448;6.674;2023-05-14T12:41:34;4.75;;;2.53;;
37905;SDS011;23739;51.448;6.674;2023-05-14T12:44:01;3.85;;;2.22;;
37905;SDS011;23739;51.448;6.674;2023-05-14T12:46:28;3.90;;;2.10;;
37905;SDS011;23739;51.448;6.674;2023-05-14T12:48:54;4.53;;;2.15;;
37905;SDS011;23739;51.448;6.674;2023-05-14T12:51:20;4.82;;;1.92;;
37905;SDS011;23739;51.448;6.674;2023-05-14T12:53:46;4.15;;;2.10;;
37905;SDS011;23739;51.448;6.674;2023-05-14T12:56:13;2.75;;;2.35;;
37905;SDS011;23739;51.448;6.674;2023-05-14T12:58:40;2.78;;;2.38;;
37905;SDS011;23739;51.448;6.674;2023-05-14T13:01:06;3.35;;;2.08;;
37905;SDS011;23739;51.448;6.674;2023-05-14T13:03:32;3.67;;;2.13;;
37905;SDS011;23739;51.448;6.674;2023-05-14T13:05:58;3.40;;;2.08;;
37905;SDS011;23739;51.448;6.674;2023-05-14T13:08:25;2.22;;;2.05;;
37905;SDS011;23739;51.448;6.674;2023-05-14T13:10:52;2.53;;;2.33;;
37905;SDS011;23739;51.448;6.674;2023-05-14T13:13:18;5.63;;;2.22;;
37905;SDS011;23739;51.448;6.674;2023-05-14T13:15:44;2.40;;;1.98;;
37905;SDS011;23739;51.448;6.674;2023-05-14T13:18:14;2.58;;;2.10;;
37905;SDS011;23739;51.448;6.674;2023-05-14T13:20:41;3.30;;;2.15;;
37905;SDS011;23739;51.448;6.674;2023-05-14T13:23:07;3.35;;;2.10;;
37905;SDS011;23739;51.448;6.674;2023-05-14T13:25:34;2.35;;;2.10;;
37905;SDS011;23739;51.448;6.674;2023-05-14T13:28:00;5.60;;;1.70;;
37905;SDS011;23739;51.448;6.674;2023-05-14T13:30:26;4.50;;;1.83;;
37905;SDS011;23739;51.448;6.674;2023-05-14T13:32:52;6.53;;;2.92;;
37905;SDS011;23739;51.448;6.674;2023-05-14T13:35:18;4.55;;;2.28;;
37905;SDS011;23739;51.448;6.674;2023-05-14T13:37:45;2.20;;;1.90;;
37905;SDS011;23739;51.448;6.674;2023-05-14T13:40:11;3.25;;;2.03;;
37905;SDS011;23739;51.448;6.674;2023-05-14T13:42:38;2.30;;;1.98;;
37905;SDS011;23739;51.448;6.674;2023-05-14T13:45:04;3.58;;;2.30;;
37905;SDS011;23739;51.448;6.674;2023-05-14T13:47:31;3.33;;;2.00;;
37905;SDS011;23739;51.448;6.674;2023-05-14T13:49:57;4.07;;;2.20;;
37905;SDS011;23739;51.448;6.674;2023-05-14T13:52:23;2.22;;;1.92;;
37905;SDS011;23739;51.448;6.674;2023-05-14T13:54:50;3.00;;;2.75;;
37905;SDS011;23739;51.448;6.674;2023-05-14T13:57:17;3.72;;;2.20;;
37905;SDS011;23739;51.448;6.674;2023-05-14T13:59:44;4.10;;;1.85;;
37905;SDS011;23739;51.448;6.674;2023-05-14T14:02:11;10.02;;;2.88;;
37905;SDS011;23739;51.448;6.674;2023-05-14T14:04:37;3.05;;;2.78;;
37905;SDS011;23739;51.448;6.674;2023-05-14T14:07:03;4.28;;;2.22;;
37905;SDS011;23739;51.448;6.674;2023-05-14T14:09:30;6.07;;;1.90;;
37905;SDS011;23739;51.448;6.674;2023-05-14T14:11:59;2.05;;;1.95;;
37905;SDS011;23739;51.448;6.674;2023-05-14T14:14:26;3.20;;;2.20;;
37905;SDS011;23739;51.448;6.674;2023-05-14T14:16:52;3.63;;;2.50;;
37905;SDS011;23739;51.448;6.674;2023-05-14T14:19:18;5.50;;;2.78;;
37905;SDS011;23739;51.448;6.674;2023-05-14T14:21:45;3.20;;;2.53;;
37905;SDS011;23739;51.448;6.674;2023-05-14T14:24:11;6.13;;;2.00;;
37905;SDS011;23739;51.448;6.674;2023-05-14T14:26:37;3.95;;;2.47;;
37905;SDS011;23739;51.448;6.674;2023-05-14T14:29:03;4.70;;;1.88;;
37905;SDS011;23739;51.448;6.674;2023-05-14T14:31:29;4.00;;;2.22;;
37905;SDS011;23739;51.448;6.674;2023-05-14T14:33:55;6.22;;;2.70;;
37905;SDS011;23739;51.448;6.674;2023-05-14T14:36:21;3.47;;;2.47;;
37905;SDS011;23739;51.448;6.674;2023-05-14T14:38:48;6.60;;;2.58;;
37905;SDS011;23739;51.448;6.674;2023-05-14T14:41:14;3.83;;;2.85;;
37905;SDS011;23739;51.448;6.674;2023-05-14T14:43:40;4.05;;;3.15;;
37905;SDS011;23739;51.448;6.674;2023-05-14T14:46:07;6.43;;;3.20;;
37905;SDS011;23739;51.448;6.674;2023-05-14T14:48:34;4.38;;;2.70;;
37905;SDS011;23739;51.448;6.674;2023-05-14T14:51:04;4.00;;;3.00;;
37905;SDS011;23739;51.448;6.674;2023-05-14T14:53:31;4.55;;;2.75;;
37905;SDS011;23739;51.448;6.674;2023-05-14T14:55:57;3.10;;;2.58;;